createdAt,value
2016-05-19T00:00:04.460Z,0
2016-05-19T00:01:04.448Z,0
2016-05-19T00:02:04.278Z,0
2016-05-19T00:03:04.421Z,0
2016-05-19T00:04:04.378Z,0
2016-05-19T00:05:04.364Z,0
2016-05-19T00:06:04.336Z,0
2016-05-19T00:07:04.306Z,0
2016-05-19T00:08:04.153Z,0
2016-05-19T00:09:04.125Z,0
2016-05-19T00:10:04.097Z,0
2016-05-19T00:11:04.100Z,0
2016-05-19T00:12:04.211Z,0
2016-05-19T00:13:04.167Z,0
2016-05-19T00:14:04.170Z,0
2016-05-19T00:15:04.158Z,0
2016-05-19T00:16:04.128Z,0
2016-05-19T00:17:03.788Z,0
2016-05-19T00:18:04.103Z,0
2016-05-19T00:19:04.043Z,0
2016-05-19T00:20:03.889Z,0
2016-05-19T00:21:04.016Z,0
2016-05-19T00:22:03.988Z,0
2016-05-19T00:23:03.866Z,0
2016-05-19T00:24:03.962Z,0
2016-05-19T00:25:03.935Z,0
2016-05-19T00:26:03.905Z,0
2016-05-19T00:27:03.892Z,0
2016-05-19T00:28:03.692Z,0
2016-05-19T00:29:03.835Z,0
2016-05-19T00:30:03.823Z,0
2016-05-19T00:31:03.793Z,0
2016-05-19T00:32:03.781Z,0
2016-05-19T00:33:03.767Z,0
2016-05-19T00:34:03.739Z,0
2016-05-19T00:35:03.554Z,0
2016-05-19T00:36:03.542Z,0
2016-05-19T00:37:03.513Z,0
2016-05-19T00:38:03.656Z,0
2016-05-19T00:39:03.643Z,0
2016-05-19T00:40:03.600Z,0
2016-05-19T00:41:03.586Z,0
2016-05-19T00:42:03.558Z,0
2016-05-19T00:43:03.529Z,0
2016-05-19T00:44:03.500Z,0
2016-05-19T00:45:03.347Z,0
2016-05-19T00:46:03.475Z,0
2016-05-19T00:47:03.461Z,0
2016-05-19T00:48:03.417Z,0
2016-05-19T00:49:03.405Z,0
2016-05-19T00:50:03.391Z,0
2016-05-19T00:51:03.363Z,0
2016-05-19T00:52:03.178Z,0
2016-05-19T00:53:03.165Z,0
2016-05-19T00:54:03.152Z,0
2016-05-19T00:55:03.280Z,0
2016-05-19T00:56:03.268Z,0
2016-05-19T00:57:03.255Z,0
2016-05-19T00:58:03.226Z,0
2016-05-19T00:59:03.040Z,0
2016-05-19T01:00:03.013Z,0
2016-05-19T01:01:03.140Z,0
2016-05-19T01:02:02.970Z,0
2016-05-19T01:03:03.098Z,0
2016-05-19T01:04:03.070Z,0
2016-05-19T01:05:03.057Z,0
2016-05-19T01:06:03.045Z,0
2016-05-19T01:07:03.015Z,0
2016-05-19T01:08:02.831Z,0
2016-05-19T01:09:02.974Z,0
2016-05-19T01:10:02.930Z,0
2016-05-19T01:11:02.917Z,0
2016-05-19T01:12:02.903Z,0
2016-05-19T01:13:02.719Z,0
2016-05-19T01:14:02.862Z,0
2016-05-19T01:15:02.834Z,0
2016-05-19T01:16:02.508Z,0
2016-05-19T01:17:02.636Z,0
2016-05-19T01:18:02.795Z,0
2016-05-19T01:19:02.736Z,0
2016-05-19T01:20:02.566Z,0
2016-05-19T01:21:02.709Z,0
2016-05-19T01:22:02.697Z,0
2016-05-19T01:23:02.684Z,0
2016-05-19T01:24:02.780Z,0
2016-05-19T01:25:02.470Z,0
2016-05-19T01:26:02.598Z,0
2016-05-19T01:27:02.569Z,0
2016-05-19T01:28:02.541Z,0
2016-05-19T01:29:02.215Z,0
2016-05-19T01:30:02.343Z,0
2016-05-19T01:31:02.487Z,0
2016-05-19T01:32:02.457Z,0
2016-05-19T01:33:02.429Z,0
2016-05-19T01:34:02.416Z,0
2016-05-19T01:35:02.387Z,0
2016-05-19T01:36:02.062Z,0
2016-05-19T01:37:02.346Z,0
2016-05-19T01:38:02.333Z,0
2016-05-19T01:39:02.555Z,0
2016-05-19T01:40:02.275Z,0
2016-05-19T01:41:01.966Z,0
2016-05-19T01:42:02.234Z,0
2016-05-19T01:43:02.206Z,0
2016-05-19T01:44:02.193Z,0
2016-05-19T01:45:02.181Z,0
2016-05-19T01:46:02.152Z,0
2016-05-19T01:47:02.123Z,0
2016-05-19T01:48:02.094Z,0
2016-05-19T01:49:02.081Z,0
2016-05-19T01:50:02.084Z,0
2016-05-19T01:51:01.884Z,0
2016-05-19T01:52:01.855Z,0
2016-05-19T01:53:02.014Z,0
2016-05-19T01:54:01.830Z,0
2016-05-19T01:55:01.785Z,0
2016-05-19T01:56:01.929Z,0
2016-05-19T01:57:01.916Z,0
2016-05-19T01:58:01.574Z,0
2016-05-19T01:59:01.702Z,0
2016-05-19T02:00:01.846Z,0
2016-05-19T02:01:01.817Z,0
2016-05-19T02:02:01.788Z,0
2016-05-19T02:03:01.603Z,0
2016-05-19T02:04:01.746Z,0
2016-05-19T02:05:01.750Z,0
2016-05-19T02:06:01.549Z,0
2016-05-19T02:07:01.676Z,0
2016-05-19T02:08:01.351Z,0
2016-05-19T02:09:01.495Z,0
2016-05-19T02:10:01.310Z,0
2016-05-19T02:11:01.595Z,0
2016-05-19T02:12:01.440Z,0
2016-05-19T02:13:01.396Z,0
2016-05-19T02:14:01.368Z,0
2016-05-19T02:15:01.511Z,0
2016-05-19T02:16:01.498Z,0
2016-05-19T02:17:01.313Z,0
2016-05-19T02:18:01.284Z,0
2016-05-19T02:19:01.428Z,0
2016-05-19T02:20:01.399Z,0
2016-05-19T02:21:01.371Z,0
2016-05-19T02:22:01.358Z,0
2016-05-19T02:23:01.344Z,0
2016-05-19T02:24:01.613Z,0
2016-05-19T02:25:01.280Z,0
2016-05-19T02:26:01.111Z,0
2016-05-19T02:27:01.097Z,0
2016-05-19T02:28:01.225Z,0
2016-05-19T02:29:01.197Z,0
2016-05-19T02:30:01.028Z,0
2016-05-19T02:31:01.140Z,0
2016-05-19T02:32:01.127Z,0
2016-05-19T02:33:01.113Z,0
2016-05-19T02:34:01.070Z,0
2016-05-19T02:35:01.088Z,0
2016-05-19T02:36:01.029Z,0
2016-05-19T02:37:00.859Z,0
2016-05-19T02:38:00.987Z,0
2016-05-19T02:39:00.959Z,0
2016-05-19T02:40:00.945Z,0
2016-05-19T02:41:00.960Z,0
2016-05-19T02:42:00.975Z,0
2016-05-19T02:43:00.990Z,0
2016-05-19T02:44:01.006Z,0
2016-05-19T02:45:01.036Z,0
2016-05-19T02:46:01.047Z,0
2016-05-19T02:47:00.879Z,4
2016-05-19T02:48:01.036Z,4
2016-05-19T02:49:01.009Z,4
2016-05-19T02:50:00.855Z,0
2016-05-19T02:51:00.834Z,0
2016-05-19T02:52:00.828Z,4
2016-05-19T02:53:01.259Z,4
2016-05-19T02:54:01.281Z,4
2016-05-19T02:55:00.790Z,4
2016-05-19T02:56:00.906Z,4
2016-05-19T02:57:00.879Z,4
2016-05-19T02:58:00.883Z,8
2016-05-19T02:59:00.842Z,4
2016-05-19T03:00:00.831Z,8
2016-05-19T03:01:00.663Z,8
2016-05-19T03:02:00.619Z,8
2016-05-19T03:03:00.747Z,12
2016-05-19T03:04:00.439Z,12
2016-05-19T03:05:00.707Z,12
2016-05-19T03:06:00.696Z,16
2016-05-19T03:07:00.667Z,16
2016-05-19T03:08:00.654Z,20
2016-05-19T03:09:00.627Z,20
2016-05-19T03:10:00.597Z,24
2016-05-19T03:11:00.600Z,28
2016-05-19T03:12:00.556Z,28
2016-05-19T03:13:00.528Z,36
2016-05-19T03:14:00.516Z,40
2016-05-19T03:15:00.487Z,44
2016-05-19T03:16:00.474Z,52
2016-05-19T03:17:00.289Z,56
2016-05-19T03:18:00.417Z,64
2016-05-19T03:19:00.388Z,76
2016-05-19T03:20:00.375Z,80
2016-05-19T03:21:00.363Z,88
2016-05-19T03:22:00.318Z,96
2016-05-19T03:23:00.305Z,104
2016-05-19T03:24:00.135Z,116
2016-05-19T03:25:00.248Z,128
2016-05-19T03:26:00.235Z,140
2016-05-19T03:27:00.206Z,148
2016-05-19T03:28:00.037Z,160
2016-05-19T03:29:00.165Z,172
2016-05-19T03:30:00.137Z,188
2016-05-19T03:31:00.107Z,200
2016-05-19T03:32:00.095Z,216
2016-05-19T03:33:00.067Z,228
2016-05-19T03:33:59.898Z,244
2016-05-19T03:34:59.869Z,260
2016-05-19T03:35:59.996Z,276
2016-05-19T03:36:59.828Z,292
2016-05-19T03:37:59.955Z,316
2016-05-19T03:39:00.503Z,340
2016-05-19T03:39:59.757Z,364
2016-05-19T03:40:59.884Z,388
2016-05-19T03:41:59.856Z,416
2016-05-19T03:42:59.827Z,444
2016-05-19T03:43:59.658Z,476
2016-05-19T03:44:59.786Z,504
2016-05-19T03:45:59.772Z,544
2016-05-19T03:46:59.729Z,580
2016-05-19T03:47:59.560Z,624
2016-05-19T03:48:59.703Z,680
2016-05-19T03:49:59.659Z,728
2016-05-19T03:50:59.646Z,776
2016-05-19T03:51:59.618Z,828
2016-05-19T03:52:59.605Z,888
2016-05-19T03:53:59.420Z,936
2016-05-19T03:54:59.547Z,976
2016-05-19T03:55:59.379Z,1008
2016-05-19T03:56:59.506Z,1052
2016-05-19T03:57:59.493Z,1112
2016-05-19T03:58:59.465Z,1176
2016-05-19T03:59:59.435Z,1248
2016-05-19T04:00:59.423Z,1292
2016-05-19T04:01:59.237Z,1316
2016-05-19T04:02:59.365Z,1336
2016-05-19T04:03:59.353Z,1360
2016-05-19T04:04:59.324Z,1372
2016-05-19T04:05:58.983Z,1400
2016-05-19T04:06:59.267Z,1440
2016-05-19T04:07:59.098Z,1428
2016-05-19T04:08:59.476Z,1396
2016-05-19T04:09:59.042Z,1348
2016-05-19T04:10:59.184Z,1356
2016-05-19T04:11:59.172Z,1356
2016-05-19T04:12:59.128Z,1368
2016-05-19T04:13:59.098Z,1388
2016-05-19T04:14:59.085Z,1400
2016-05-19T04:15:59.057Z,1396
2016-05-19T04:16:59.044Z,1372
2016-05-19T04:17:59.000Z,1360
2016-05-19T04:18:58.846Z,1372
2016-05-19T04:19:58.818Z,1412
2016-05-19T04:20:58.804Z,1472
2016-05-19T04:21:58.760Z,1584
2016-05-19T04:22:58.763Z,1648
2016-05-19T04:23:58.797Z,1648
2016-05-19T04:24:58.863Z,1632
2016-05-19T04:25:58.834Z,1620
2016-05-19T04:26:58.508Z,1652
2016-05-19T04:27:58.793Z,1728
2016-05-19T04:28:58.764Z,1864
2016-05-19T04:29:58.751Z,2036
2016-05-19T04:30:58.723Z,2280
2016-05-19T04:31:58.694Z,2500
2016-05-19T04:32:58.665Z,2656
2016-05-19T04:33:58.496Z,2752
2016-05-19T04:34:58.639Z,2836
2016-05-19T04:35:58.611Z,2980
2016-05-19T04:36:58.582Z,3200
2016-05-19T04:37:58.694Z,3472
2016-05-19T04:38:58.573Z,3736
2016-05-19T04:39:58.512Z,3932
2016-05-19T04:40:58.514Z,4156
2016-05-19T04:41:58.471Z,4316
2016-05-19T04:42:58.442Z,4372
2016-05-19T04:43:58.429Z,4328
2016-05-19T04:44:58.416Z,4148
2016-05-19T04:45:58.372Z,3900
2016-05-19T04:46:58.218Z,3820
2016-05-19T04:47:58.347Z,3900
2016-05-19T04:48:58.317Z,4060
2016-05-19T04:49:58.289Z,4204
2016-05-19T04:50:58.261Z,4204
2016-05-19T04:51:58.247Z,4128
2016-05-19T04:52:58.063Z,3988
2016-05-19T04:53:58.284Z,3732
2016-05-19T04:54:58.194Z,3544
2016-05-19T04:55:58.149Z,3436
2016-05-19T04:56:58.120Z,3384
2016-05-19T04:57:58.124Z,3388
2016-05-19T04:58:58.094Z,3416
2016-05-19T04:59:58.066Z,3348
2016-05-19T05:00:57.897Z,3180
2016-05-19T05:01:57.868Z,2992
2016-05-19T05:02:57.840Z,2840
2016-05-19T05:03:57.982Z,2744
2016-05-19T05:04:57.985Z,2752
2016-05-19T05:05:57.770Z,2952
2016-05-19T05:06:57.913Z,3252
2016-05-19T05:07:57.728Z,3528
2016-05-19T05:08:58.231Z,3708
2016-05-19T05:09:57.859Z,3856
2016-05-19T05:10:57.830Z,4044
2016-05-19T05:11:57.801Z,4328
2016-05-19T05:12:57.632Z,4592
2016-05-19T05:13:57.448Z,4800
2016-05-19T05:14:57.747Z,4952
2016-05-19T05:15:57.703Z,4964
2016-05-19T05:16:57.690Z,4852
2016-05-19T05:17:57.677Z,4764
2016-05-19T05:18:57.648Z,4900
2016-05-19T05:19:57.620Z,5028
2016-05-19T05:20:57.450Z,4972
2016-05-19T05:21:57.422Z,4876
2016-05-19T05:22:57.549Z,4700
2016-05-19T05:23:57.115Z,4432
2016-05-19T05:24:57.525Z,4176
2016-05-19T05:25:57.496Z,4036
2016-05-19T05:26:57.310Z,3980
2016-05-19T05:27:57.438Z,4024
2016-05-19T05:28:57.457Z,4136
2016-05-19T05:29:57.413Z,4248
2016-05-19T05:30:57.384Z,4300
2016-05-19T05:31:57.371Z,4300
2016-05-19T05:32:57.343Z,4228
2016-05-19T05:33:57.298Z,4080
2016-05-19T05:34:57.316Z,3972
2016-05-19T05:35:57.273Z,3944
2016-05-19T05:36:57.243Z,3944
2016-05-19T05:37:57.231Z,3940
2016-05-19T05:38:57.577Z,3952
2016-05-19T05:39:57.174Z,3872
2016-05-19T05:40:57.004Z,3712
2016-05-19T05:41:57.132Z,3552
2016-05-19T05:42:56.963Z,3432
2016-05-19T05:43:57.091Z,3320
2016-05-19T05:44:56.922Z,3212
2016-05-19T05:45:56.893Z,3104
2016-05-19T05:46:57.036Z,3036
2016-05-19T05:47:57.023Z,3052
2016-05-19T05:48:56.978Z,3096
2016-05-19T05:49:56.967Z,3080
2016-05-19T05:50:56.953Z,3028
2016-05-19T05:51:56.925Z,3044
2016-05-19T05:52:56.928Z,3180
2016-05-19T05:53:56.742Z,3484
2016-05-19T05:54:56.870Z,3996
2016-05-19T05:55:56.842Z,4736
2016-05-19T05:56:56.813Z,5504
2016-05-19T05:57:56.800Z,6168
2016-05-19T05:58:56.630Z,6876
2016-05-19T05:59:56.602Z,7276
2016-05-19T06:00:56.730Z,7732
2016-05-19T06:01:56.718Z,7908
2016-05-19T06:02:56.549Z,7696
2016-05-19T06:03:56.660Z,7208
2016-05-19T06:04:56.663Z,6688
2016-05-19T06:05:56.619Z,6216
2016-05-19T06:06:56.449Z,5812
2016-05-19T06:07:56.577Z,5428
2016-05-19T06:08:56.720Z,4968
2016-05-19T06:09:56.535Z,4452
2016-05-19T06:10:56.210Z,3952
2016-05-19T06:11:56.494Z,3488
2016-05-19T06:12:56.325Z,3124
2016-05-19T06:13:56.140Z,2888
2016-05-19T06:14:56.128Z,2792
2016-05-19T06:15:56.412Z,2776
2016-05-19T06:16:56.383Z,2916
2016-05-19T06:17:56.370Z,3268
2016-05-19T06:18:56.356Z,3832
2016-05-19T06:19:56.328Z,4388
2016-05-19T06:20:56.314Z,4688
2016-05-19T06:21:56.272Z,4800
2016-05-19T06:22:56.102Z,4840
2016-05-19T06:23:56.464Z,4876
2016-05-19T06:24:56.061Z,4792
2016-05-19T06:25:56.048Z,4436
2016-05-19T06:26:56.175Z,3916
2016-05-19T06:27:56.146Z,3408
2016-05-19T06:28:56.133Z,2960
2016-05-19T06:29:56.121Z,2596
2016-05-19T06:30:55.935Z,2348
2016-05-19T06:31:56.080Z,2240
2016-05-19T06:32:55.738Z,2340
2016-05-19T06:33:56.022Z,2656
2016-05-19T06:34:56.010Z,3128
2016-05-19T06:35:55.980Z,3656
2016-05-19T06:36:55.812Z,4156
2016-05-19T06:37:55.939Z,4584
2016-05-19T06:38:56.113Z,4960
2016-05-19T06:39:55.757Z,5240
2016-05-19T06:40:55.869Z,5384
2016-05-19T06:41:55.856Z,5424
2016-05-19T06:42:55.671Z,5428
2016-05-19T06:43:55.674Z,5408
2016-05-19T06:44:55.646Z,5356
2016-05-19T06:45:55.789Z,5332
2016-05-19T06:46:55.589Z,5380
2016-05-19T06:47:55.576Z,5492
2016-05-19T06:48:55.703Z,5624
2016-05-19T06:49:55.377Z,5856
2016-05-19T06:50:55.677Z,6312
2016-05-19T06:51:55.648Z,7048
2016-05-19T06:52:55.464Z,7904
2016-05-19T06:53:55.858Z,8720
2016-05-19T06:54:55.578Z,9432
2016-05-19T06:55:55.550Z,10112
2016-05-19T06:56:55.537Z,10840
2016-05-19T06:57:55.525Z,11592
2016-05-19T06:58:55.198Z,12156
2016-05-19T06:59:55.186Z,12548
2016-05-19T07:00:55.469Z,12976
2016-05-19T07:01:55.269Z,13404
2016-05-19T07:02:55.271Z,13368
2016-05-19T07:03:55.399Z,13288
2016-05-19T07:04:55.371Z,13888
2016-05-19T07:05:55.343Z,32544
2016-05-19T07:06:55.345Z,23488
2016-05-19T07:07:55.348Z,19776
2016-05-19T07:08:55.507Z,20384
2016-05-19T07:09:55.275Z,15740
2016-05-19T07:10:55.106Z,15660
2016-05-19T07:11:55.234Z,15740
2016-05-19T07:12:55.048Z,15672
2016-05-19T07:13:55.036Z,15808
2016-05-19T07:14:55.179Z,15632
2016-05-19T07:15:55.166Z,15032
2016-05-19T07:16:55.122Z,14352
2016-05-19T07:17:55.109Z,13984
2016-05-19T07:18:55.096Z,13764
2016-05-19T07:19:55.083Z,13760
2016-05-19T07:20:55.070Z,14048
2016-05-19T07:21:55.042Z,14224
2016-05-19T07:22:55.013Z,15076
2016-05-19T07:23:55.000Z,16132
2016-05-19T07:24:54.987Z,18528
2016-05-19T07:25:54.959Z,17352
2016-05-19T07:26:54.633Z,18624
2016-05-19T07:27:54.792Z,18688
2016-05-19T07:28:54.905Z,18076
2016-05-19T07:29:54.892Z,17916
2016-05-19T07:30:54.910Z,17120
2016-05-19T07:31:54.850Z,15992
2016-05-19T07:32:54.680Z,15488
2016-05-19T07:33:54.652Z,14204
2016-05-19T07:34:54.796Z,13568
2016-05-19T07:35:54.783Z,13156
2016-05-19T07:36:54.613Z,12664
2016-05-19T07:37:54.429Z,12032
2016-05-19T07:38:54.915Z,12236
2016-05-19T07:39:54.715Z,12900
2016-05-19T07:40:54.405Z,14060
2016-05-19T07:41:54.657Z,15192
2016-05-19T07:42:54.645Z,20064
2016-05-19T07:43:54.632Z,18304
2016-05-19T07:44:54.447Z,20288
2016-05-19T07:45:54.607Z,23424
2016-05-19T07:46:54.578Z,23936
2016-05-19T07:47:54.564Z,22688
2016-05-19T07:48:54.537Z,22656
2016-05-19T07:49:54.509Z,30656
2016-05-19T07:50:54.495Z,25024
2016-05-19T07:51:54.482Z,22336
2016-05-19T07:52:54.469Z,28736
2016-05-19T07:53:54.315Z,33312
2016-05-19T07:54:54.442Z,32128
2016-05-19T07:55:54.445Z,47168
2016-05-19T07:56:54.402Z,37088
2016-05-19T07:57:54.373Z,35648
2016-05-19T07:58:54.219Z,27520
2016-05-19T07:59:54.206Z,24992
2016-05-19T08:00:54.334Z,19936
2016-05-19T08:01:54.165Z,16412
2016-05-19T08:02:54.293Z,13840
2016-05-19T08:03:54.295Z,13416
2016-05-19T08:04:54.110Z,13276
2016-05-19T08:05:54.097Z,13904
2016-05-19T08:06:54.085Z,14728
2016-05-19T08:07:54.228Z,12828
2016-05-19T08:08:54.216Z,13836
2016-05-19T08:09:53.890Z,12068
2016-05-19T08:10:54.190Z,12744
2016-05-19T08:11:54.176Z,14060
2016-05-19T08:12:54.148Z,12716
2016-05-19T08:13:53.948Z,13076
2016-05-19T08:14:54.137Z,12396
2016-05-19T08:15:54.093Z,12184
2016-05-19T08:16:54.065Z,12672
2016-05-19T08:17:54.052Z,13624
2016-05-19T08:18:54.039Z,14708
2016-05-19T08:19:54.010Z,18688
2016-05-19T08:20:53.997Z,22336
2016-05-19T08:21:53.984Z,17028
2016-05-19T08:22:53.972Z,17176
2016-05-19T08:23:53.817Z,16368
2016-05-19T08:24:53.945Z,14452
2016-05-19T08:25:53.916Z,14252
2016-05-19T08:26:53.888Z,12540
2016-05-19T08:27:53.719Z,11344
2016-05-19T08:28:53.706Z,11728
2016-05-19T08:29:53.537Z,11900
2016-05-19T08:30:53.836Z,11036
2016-05-19T08:31:53.667Z,10280
2016-05-19T08:32:53.795Z,9408
2016-05-19T08:33:53.766Z,9332
2016-05-19T08:34:53.755Z,9852
2016-05-19T08:35:53.444Z,10864
2016-05-19T08:36:53.728Z,11480
2016-05-19T08:37:53.715Z,12244
2016-05-19T08:38:53.608Z,13008
2016-05-19T08:39:53.501Z,13596
2016-05-19T08:40:53.660Z,13880
2016-05-19T08:41:53.632Z,13740
2016-05-19T08:42:53.619Z,13688
2016-05-19T08:43:53.622Z,14200
2016-05-19T08:44:53.577Z,14848
2016-05-19T08:45:53.252Z,15164
2016-05-19T08:46:53.536Z,14912
2016-05-19T08:47:53.539Z,14388
2016-05-19T08:48:53.509Z,13916
2016-05-19T08:49:53.497Z,13696
2016-05-19T08:50:53.468Z,13776
2016-05-19T08:51:53.471Z,13972
2016-05-19T08:52:53.442Z,14068
2016-05-19T08:53:53.820Z,14112
2016-05-19T08:54:53.526Z,14364
2016-05-19T08:55:53.389Z,14940
2016-05-19T08:56:53.375Z,15556
2016-05-19T08:57:53.347Z,15972
2016-05-19T08:58:53.333Z,16392
2016-05-19T08:59:53.336Z,16760
2016-05-19T09:00:53.292Z,17420
2016-05-19T09:01:53.295Z,18124
2016-05-19T09:02:53.267Z,17896
2016-05-19T09:03:53.097Z,18784
2016-05-19T09:04:53.225Z,18784
2016-05-19T09:05:53.213Z,19072
2016-05-19T09:06:53.199Z,19424
2016-05-19T09:07:53.185Z,19552
2016-05-19T09:08:53.235Z,19232
2016-05-19T09:09:53.160Z,18560
2016-05-19T09:10:53.147Z,17448
2016-05-19T09:11:52.962Z,16692
2016-05-19T09:12:53.091Z,17024
2016-05-19T09:13:53.062Z,18624
2016-05-19T09:14:53.079Z,20352
2016-05-19T09:15:53.052Z,21856
2016-05-19T09:16:53.023Z,23680
2016-05-19T09:17:53.010Z,24864
2016-05-19T09:18:52.981Z,25664
2016-05-19T09:19:52.829Z,25888
2016-05-19T09:20:52.971Z,26368
2016-05-19T09:21:52.942Z,26464
2016-05-19T09:22:52.929Z,26080
2016-05-19T09:23:52.776Z,26464
2016-05-19T09:24:52.920Z,26720
2016-05-19T09:25:52.719Z,27456
2016-05-19T09:26:52.862Z,27360
2016-05-19T09:27:52.849Z,26400
2016-05-19T09:28:52.852Z,25216
2016-05-19T09:29:52.808Z,24576
2016-05-19T09:30:52.639Z,24896
2016-05-19T09:31:52.798Z,26112
2016-05-19T09:32:52.628Z,25280
2016-05-19T09:33:52.756Z,25088
2016-05-19T09:34:52.743Z,26176
2016-05-19T09:35:52.730Z,25376
2016-05-19T09:36:52.701Z,24672
2016-05-19T09:37:52.689Z,25440
2016-05-19T09:38:52.364Z,25664
2016-05-19T09:39:52.491Z,24256
2016-05-19T09:40:52.650Z,23776
2016-05-19T09:41:52.621Z,21984
2016-05-19T09:42:52.608Z,19776
2016-05-19T09:43:52.596Z,19520
2016-05-19T09:44:52.629Z,21184
2016-05-19T09:45:52.585Z,25504
2016-05-19T09:46:52.229Z,24800
2016-05-19T09:47:52.372Z,23040
2016-05-19T09:48:52.515Z,22464
2016-05-19T09:49:52.518Z,23872
2016-05-19T09:50:52.490Z,24576
2016-05-19T09:51:52.476Z,23328
2016-05-19T09:52:52.464Z,24064
2016-05-19T09:53:52.482Z,21344
2016-05-19T09:54:52.281Z,19872
2016-05-19T09:55:52.425Z,20128
2016-05-19T09:56:52.396Z,23936
2016-05-19T09:57:52.383Z,23776
2016-05-19T09:58:52.386Z,23168
2016-05-19T09:59:52.358Z,23776
2016-05-19T10:00:52.360Z,20768
2016-05-19T10:01:52.206Z,19904
2016-05-19T10:02:52.319Z,19648
2016-05-19T10:03:52.306Z,19424
2016-05-19T10:04:52.277Z,17152
2016-05-19T10:05:52.264Z,16456
2016-05-19T10:06:52.127Z,18288
2016-05-19T10:07:52.239Z,19456
2016-05-19T10:08:52.225Z,20768
2016-05-19T10:09:52.197Z,21216
2016-05-19T10:10:52.199Z,21312
2016-05-19T10:11:52.030Z,20704
2016-05-19T10:12:52.080Z,20544
2016-05-19T10:13:52.146Z,20096
2016-05-19T10:14:52.148Z,19968
2016-05-19T10:15:52.135Z,20384
2016-05-19T10:16:51.950Z,19936
2016-05-19T10:17:51.937Z,20416
2016-05-19T10:18:52.096Z,20672
2016-05-19T10:19:52.068Z,21248
2016-05-19T10:20:52.071Z,19808
2016-05-19T10:21:51.885Z,17944
2016-05-19T10:22:52.029Z,17216
2016-05-19T10:23:52.047Z,16840
2016-05-19T10:24:51.831Z,17264
2016-05-19T10:25:51.662Z,18056
2016-05-19T10:26:51.962Z,19744
2016-05-19T10:27:51.964Z,19744
2016-05-19T10:28:51.936Z,20352
2016-05-19T10:29:51.954Z,21184
2016-05-19T10:30:51.909Z,21984
2016-05-19T10:31:51.740Z,21984
2016-05-19T10:32:51.884Z,21216
2016-05-19T10:33:51.856Z,20416
2016-05-19T10:34:51.842Z,20224
2016-05-19T10:35:51.830Z,20896
2016-05-19T10:36:51.660Z,20416
2016-05-19T10:37:51.819Z,19328
2016-05-19T10:38:51.791Z,19264
2016-05-19T10:39:51.762Z,18528
2016-05-19T10:40:51.764Z,17324
2016-05-19T10:41:51.752Z,16500
2016-05-19T10:42:51.739Z,16468
2016-05-19T10:43:51.710Z,14748
2016-05-19T10:44:51.713Z,12700
2016-05-19T10:45:51.685Z,11416
2016-05-19T10:46:51.672Z,10904
2016-05-19T10:47:51.643Z,10676
2016-05-19T10:48:51.661Z,11260
2016-05-19T10:49:51.648Z,12528
2016-05-19T10:50:51.448Z,14688
2016-05-19T10:51:51.591Z,15824
2016-05-19T10:52:51.594Z,16364
2016-05-19T10:53:52.159Z,16660
2016-05-19T10:54:51.412Z,16136
2016-05-19T10:55:51.540Z,14820
2016-05-19T10:56:51.214Z,14728
2016-05-19T10:57:51.341Z,15204
2016-05-19T10:58:51.501Z,14900
2016-05-19T10:59:51.473Z,14184
2016-05-19T11:00:51.459Z,14384
2016-05-19T11:01:51.290Z,14668
2016-05-19T11:02:51.277Z,14540
2016-05-19T11:03:51.420Z,13936
2016-05-19T11:04:51.391Z,13608
2016-05-19T11:05:51.378Z,13740
2016-05-19T11:06:51.209Z,13680
2016-05-19T11:07:51.353Z,12284
2016-05-19T11:08:51.825Z,11688
2016-05-19T11:09:51.327Z,11788
2016-05-19T11:10:51.298Z,11844
2016-05-19T11:11:51.285Z,13044
2016-05-19T11:12:51.133Z,15536
2016-05-19T11:13:51.088Z,17648
2016-05-19T11:14:51.231Z,17080
2016-05-19T11:15:51.218Z,15536
2016-05-19T11:16:51.205Z,16092
2016-05-19T11:17:51.426Z,16464
2016-05-19T11:18:51.023Z,17628
2016-05-19T11:19:51.151Z,18880
2016-05-19T11:20:50.841Z,19424
2016-05-19T11:21:50.968Z,19360
2016-05-19T11:22:51.112Z,19168
2016-05-19T11:23:50.959Z,18624
2016-05-19T11:24:51.102Z,18336
2016-05-19T11:25:51.073Z,19360
2016-05-19T11:26:50.779Z,20768
2016-05-19T11:27:51.032Z,21056
2016-05-19T11:28:50.957Z,18592
2016-05-19T11:29:51.037Z,16688
2016-05-19T11:30:51.009Z,16484
2016-05-19T11:31:50.839Z,18220
2016-05-19T11:32:50.983Z,20128
2016-05-19T11:33:51.031Z,21120
2016-05-19T11:34:50.956Z,21120
2016-05-19T11:35:50.944Z,20864
2016-05-19T11:36:50.931Z,20928
2016-05-19T11:37:50.746Z,21248
2016-05-19T11:38:50.905Z,21344
2016-05-19T11:39:50.844Z,21440
2016-05-19T11:40:50.847Z,21568
2016-05-19T11:41:50.820Z,21504
2016-05-19T11:42:50.806Z,21024
2016-05-19T11:43:50.793Z,20448
2016-05-19T11:44:50.874Z,20576
2016-05-19T11:45:50.783Z,20896
2016-05-19T11:46:50.480Z,21216
2016-05-19T11:47:50.804Z,21504
2016-05-19T11:48:50.831Z,21472
2016-05-19T11:49:50.734Z,21280
2016-05-19T11:50:50.730Z,20992
2016-05-19T11:51:50.734Z,20416
2016-05-19T11:52:50.735Z,19648
2016-05-19T11:53:51.252Z,19616
2016-05-19T11:54:50.582Z,19904
2016-05-19T11:55:50.896Z,20288
2016-05-19T11:56:50.702Z,20864
2016-05-19T11:57:50.866Z,21344
2016-05-19T11:58:50.858Z,21600
2016-05-19T11:59:50.695Z,21504
2016-05-19T12:00:50.844Z,21152
2016-05-19T12:01:50.833Z,20896
2016-05-19T12:02:50.806Z,20608
2016-05-19T12:03:50.794Z,20128
2016-05-19T12:04:50.768Z,19840
2016-05-19T12:05:55.289Z,20320
2016-05-19T12:06:50.823Z,20864
2016-05-19T12:07:50.749Z,20960
2016-05-19T12:08:53.424Z,20544
2016-05-19T12:09:50.708Z,20160
2016-05-19T12:10:50.806Z,19840
2016-05-19T12:11:53.887Z,19616
2016-05-19T12:12:50.671Z,19360
2016-05-19T12:13:50.659Z,18848
2016-05-19T12:14:52.349Z,17724
2016-05-19T12:15:52.384Z,16932
2016-05-19T12:16:50.652Z,16412
2016-05-19T12:17:50.483Z,16452
2016-05-19T12:18:50.595Z,16552
2016-05-19T12:19:50.410Z,16756
2016-05-19T12:20:50.256Z,16888
2016-05-19T12:21:50.540Z,16632
2016-05-19T12:22:50.543Z,15824
2016-05-19T12:23:50.937Z,14568
2016-05-19T12:24:50.485Z,13196
2016-05-19T12:25:50.317Z,11848
2016-05-19T12:26:50.460Z,10756
2016-05-19T12:27:52.901Z,9872
2016-05-19T12:28:50.418Z,9244
2016-05-19T12:29:51.343Z,8868
2016-05-19T12:30:54.690Z,9008
2016-05-19T12:31:50.412Z,9632
2016-05-19T12:32:50.414Z,9836
2016-05-19T12:33:50.354Z,9084
2016-05-19T12:34:50.341Z,8708
2016-05-19T12:35:50.359Z,8984
2016-05-19T12:36:50.331Z,9392
2016-05-19T12:37:50.271Z,9240
2016-05-19T12:38:50.961Z,8680
2016-05-19T12:39:50.120Z,8120
2016-05-19T12:40:50.076Z,8100
2016-05-19T12:41:50.236Z,8584
2016-05-19T12:42:50.066Z,8980
2016-05-19T12:43:53.334Z,9552
2016-05-19T12:44:50.164Z,9884
2016-05-19T12:45:50.042Z,10168
2016-05-19T12:46:52.530Z,9840
2016-05-19T12:47:50.126Z,9116
2016-05-19T12:48:50.019Z,8108
2016-05-19T12:49:50.038Z,7340
2016-05-19T12:50:50.088Z,6920
2016-05-19T12:51:49.902Z,7388
2016-05-19T12:52:50.046Z,7656
2016-05-19T12:53:50.486Z,7748
2016-05-19T12:54:50.051Z,7492
2016-05-19T12:55:49.819Z,7152
2016-05-19T12:56:50.010Z,6972
2016-05-19T12:57:49.651Z,6696
2016-05-19T12:58:49.809Z,6572
2016-05-19T12:59:52.659Z,6532
2016-05-19T13:00:55.396Z,6476
2016-05-19T13:01:53.804Z,6696
2016-05-19T13:02:52.651Z,7352
2016-05-19T13:03:49.760Z,7440
2016-05-19T13:04:49.684Z,7300
2016-05-19T13:05:49.828Z,7096
2016-05-19T13:06:49.831Z,6908
2016-05-19T13:07:49.678Z,6952
2016-05-19T13:08:49.696Z,6940
2016-05-19T13:09:49.917Z,6960
2016-05-19T13:10:49.779Z,7640
2016-05-19T13:11:49.422Z,8400
2016-05-19T13:12:49.706Z,9084
2016-05-19T13:13:49.694Z,9900
2016-05-19T13:14:49.681Z,11216
2016-05-19T13:15:50.886Z,11712
2016-05-19T13:16:49.482Z,10988
2016-05-19T13:17:49.657Z,10284
2016-05-19T13:18:52.678Z,9572
2016-05-19T13:19:49.616Z,9024
2016-05-19T13:20:49.572Z,9292
2016-05-19T13:21:51.608Z,9620
2016-05-19T13:22:49.546Z,9916
2016-05-19T13:23:49.580Z,10360
2016-05-19T13:24:49.535Z,10028
2016-05-19T13:25:49.335Z,9716
2016-05-19T13:26:49.479Z,8940
2016-05-19T13:27:49.450Z,8188